createdAt,value
2022-09-30T09:10:07.458Z,4.80
2022-09-30T09:13:43.401Z,5.25
2022-09-30T09:17:15.947Z,6.00
2022-09-30T09:20:22.977Z,3.50
2022-09-30T09:23:28.686Z,3.50
2022-09-30T09:26:38.450Z,3.38
2022-09-30T09:30:08.040Z,3.42
2022-09-30T09:33:23.018Z,3.25
2022-09-30T09:37:03.047Z,4.30
2022-09-30T09:40:18.647Z,4.30
2022-09-30T09:43:43.960Z,3.58
2022-09-30T09:46:49.684Z,3.47
2022-09-30T09:50:04.998Z,3.70
2022-09-30T09:53:42.138Z,3.80
2022-09-30T09:56:45.588Z,3.67
2022-09-30T10:00:40.601Z,3.63
2022-09-30T10:03:44.040Z,3.67
2022-09-30T10:06:55.880Z,3.35
2022-09-30T10:10:24.064Z,3.30
2022-09-30T10:13:48.079Z,4.20
2022-09-30T10:17:06.744Z,4.13
2022-09-30T10:20:25.506Z,4.07
2022-09-30T10:23:39.473Z,4.40
2022-09-30T10:26:49.068Z,4.00
2022-09-30T10:29:53.440Z,3.43
2022-09-30T10:32:56.831Z,3.30
2022-09-30T10:36:14.481Z,3.28
2022-09-30T10:39:30.502Z,4.05
2022-09-30T10:42:41.159Z,3.90
2022-09-30T10:46:13.428Z,4.20
2022-09-30T10:49:26.130Z,4.00
2022-09-30T10:52:33.540Z,4.78
2022-09-30T10:55:44.658Z,3.72
2022-09-30T11:02:38.461Z,3.70
2022-09-30T11:05:44.649Z,4.00
2022-09-30T11:09:03.695Z,4.05
2022-09-30T11:12:39.213Z,4.88
2022-09-30T11:16:20.190Z,4.10
2022-09-30T11:19:48.577Z,3.37
2022-09-30T11:23:16.237Z,4.22
2022-09-30T11:26:52.050Z,3.28
2022-09-30T11:30:16.877Z,2.88
2022-09-30T11:33:21.149Z,3.60
2022-09-30T11:36:43.106Z,2.27
2022-09-30T11:40:27.122Z,2.25
2022-09-30T12:19:53.267Z,2.17
2022-09-30T12:23:10.511Z,1.90
2022-09-30T12:26:15.947Z,2.22
2022-09-30T12:29:56.861Z,2.20
2022-09-30T12:33:27.488Z,2.03
2022-09-30T12:36:40.101Z,1.80
2022-09-30T12:40:01.273Z,1.80
2022-09-30T12:43:25.795Z,1.60
2022-09-30T12:46:59.594Z,2.28
2022-09-30T12:50:08.539Z,1.92
2022-09-30T12:53:22.749Z,1.57
2022-09-30T12:56:30.362Z,2.00
2022-09-30T12:59:37.739Z,1.80
2022-09-30T13:02:54.013Z,1.73
2022-09-30T13:06:06.345Z,1.83
2022-09-30T13:09:41.887Z,1.90
2022-09-30T13:12:47.998Z,2.17
2022-09-30T13:16:03.287Z,1.63
2022-09-30T13:19:21.691Z,4.93
2022-09-30T13:22:30.834Z,3.38
2022-09-30T13:25:54.077Z,2.50
2022-09-30T13:29:00.502Z,2.20
2022-09-30T13:32:05.761Z,2.70
2022-09-30T13:35:33.885Z,3.10
2022-09-30T13:38:40.791Z,20.45
2022-09-30T13:41:46.890Z,5.43
2022-09-30T13:44:59.430Z,3.60
2022-09-30T13:48:15.836Z,5.00
2022-09-30T13:51:24.491Z,2.97
2022-09-30T13:54:35.389Z,3.08
2022-09-30T13:58:00.708Z,2.20
2022-09-30T14:01:28.683Z,2.10
2022-09-30T14:04:35.277Z,2.35
2022-09-30T14:07:55.848Z,8.18
2022-09-30T14:11:17.917Z,8.32
2022-09-30T14:14:31.087Z,7.20
2022-09-30T14:17:49.415Z,4.20
2022-09-30T14:21:11.291Z,4.05
2022-09-30T14:24:21.734Z,2.75
2022-09-30T14:27:36.696Z,3.58
2022-09-30T14:31:06.811Z,2.37
2022-09-30T14:34:12.240Z,2.30
2022-09-30T14:37:35.829Z,2.08
2022-09-30T14:40:49.200Z,1.67
2022-09-30T14:44:04.653Z,1.83
2022-09-30T14:47:08.082Z,1.53
2022-09-30T14:50:26.784Z,1.90
2022-09-30T14:53:33.479Z,1.65
2022-09-30T14:56:37.419Z,2.00
2022-09-30T14:59:43.817Z,1.70
2022-09-30T15:02:47.824Z,1.37
2022-09-30T15:05:51.587Z,2.13
2022-09-30T15:09:22.485Z,1.80
2022-09-30T15:12:26.925Z,2.28
2022-09-30T15:15:38.303Z,7.97
2022-09-30T15:18:46.944Z,13.40
2022-09-30T15:21:53.463Z,6.53
2022-09-30T15:24:59.930Z,3.70
2022-09-30T15:28:04.193Z,3.03
2022-09-30T15:31:18.731Z,2.88
2022-09-30T15:34:25.358Z,3.10
2022-09-30T15:37:33.857Z,2.43
2022-09-30T15:40:46.947Z,3.90
2022-09-30T15:43:52.471Z,3.65
2022-09-30T15:47:10.042Z,4.15
2022-09-30T15:50:43.036Z,7.63
2022-09-30T15:53:48.473Z,8.20
2022-09-30T15:56:52.402Z,5.78
2022-09-30T16:00:02.297Z,5.60
2022-09-30T16:03:29.177Z,6.38
2022-09-30T16:06:37.489Z,14.00
2022-09-30T16:09:42.645Z,12.50
2022-09-30T16:12:49.585Z,13.80
2022-09-30T16:15:58.306Z,14.45
2022-09-30T16:19:02.638Z,9.70
2022-09-30T16:22:06.324Z,19.90
2022-09-30T16:25:15.522Z,14.90
2022-09-30T16:28:19.007Z,13.13
2022-09-30T16:31:24.373Z,13.50
2022-09-30T16:34:30.116Z,11.77
2022-09-30T16:37:33.731Z,8.63
2022-09-30T16:40:38.100Z,7.70
2022-09-30T16:43:41.808Z,7.20
2022-09-30T16:46:45.277Z,6.63
2022-09-30T16:49:51.256Z,6.68
2022-09-30T16:52:54.844Z,10.10
2022-09-30T16:55:58.398Z,14.67
2022-09-30T16:59:02.523Z,17.08
2022-09-30T17:02:06.116Z,22.77
2022-09-30T17:05:18.904Z,28.58
2022-09-30T17:08:24.235Z,19.93
2022-09-30T17:11:31.244Z,21.07
2022-09-30T17:14:35.179Z,20.08
2022-09-30T17:17:38.674Z,20.77
2022-09-30T17:20:45.517Z,25.77
2022-09-30T17:23:49.557Z,29.27
2022-09-30T17:26:54.092Z,22.90
2022-09-30T17:29:57.699Z,24.27
2022-09-30T17:33:01.218Z,26.30
2022-09-30T17:36:13.361Z,29.42
2022-09-30T17:39:17.049Z,25.87
2022-09-30T17:42:39.217Z,30.57
2022-09-30T17:45:45.363Z,42.38
2022-09-30T17:48:50.955Z,39.33
2022-09-30T17:51:54.554Z,29.25
2022-09-30T17:54:58.295Z,35.77
2022-09-30T17:58:03.474Z,34.83
2022-09-30T18:01:08.484Z,31.67
2022-09-30T18:04:12.146Z,26.48
2022-09-30T18:07:15.803Z,28.17
2022-09-30T18:10:19.463Z,27.00
2022-09-30T18:13:26.709Z,29.70
2022-09-30T18:16:33.898Z,30.10
2022-09-30T18:19:37.605Z,28.17
2022-09-30T18:22:41.567Z,26.75
2022-09-30T18:25:49.826Z,20.87
2022-09-30T18:28:53.667Z,17.53
2022-09-30T18:31:57.489Z,20.30
2022-09-30T18:35:01.623Z,19.70
2022-09-30T18:38:07.022Z,17.35
2022-09-30T18:41:10.795Z,13.73
2022-09-30T18:44:14.718Z,17.33
2022-09-30T18:47:18.746Z,21.38
2022-09-30T18:50:23.670Z,22.65
2022-09-30T18:53:31.756Z,17.08
2022-09-30T18:56:37.533Z,17.83
2022-09-30T18:59:41.694Z,13.90
2022-09-30T19:02:45.657Z,11.95
2022-09-30T19:05:49.241Z,12.75
2022-09-30T19:08:52.889Z,12.02
2022-09-30T19:11:56.462Z,10.77
2022-09-30T19:15:00.774Z,10.53
2022-09-30T19:18:05.816Z,9.25
2022-09-30T19:21:11.972Z,10.60
2022-09-30T19:24:18.227Z,10.55
2022-09-30T19:27:25.169Z,10.07
2022-09-30T19:30:28.652Z,9.20
2022-09-30T19:33:34.145Z,8.07
2022-09-30T19:36:49.543Z,9.02
2022-09-30T19:39:55.017Z,8.13
2022-09-30T19:42:58.908Z,12.37
2022-09-30T19:46:06.839Z,31.20
2022-09-30T19:49:12.259Z,24.55
2022-09-30T19:52:21.880Z,20.35
2022-09-30T19:55:26.789Z,15.98
2022-09-30T19:58:35.066Z,16.37
2022-09-30T20:01:38.855Z,14.40
2022-09-30T20:04:43.937Z,14.38
2022-09-30T20:07:51.132Z,12.85
2022-09-30T20:11:00.732Z,13.23
2022-09-30T20:14:25.182Z,13.47
2022-09-30T20:17:29.500Z,15.23
2022-09-30T20:20:37.317Z,15.57
2022-09-30T20:23:41.992Z,15.27
2022-09-30T20:26:46.387Z,14.15
2022-09-30T20:29:49.857Z,11.70
2022-09-30T20:32:54.071Z,12.73
2022-09-30T20:36:01.613Z,12.93
2022-09-30T20:39:06.501Z,11.02
2022-09-30T20:42:09.889Z,11.52
2022-09-30T20:45:14.279Z,11.30
2022-09-30T20:48:18.168Z,13.67
2022-09-30T20:51:21.826Z,13.00
2022-09-30T20:54:25.242Z,12.77
2022-09-30T20:57:32.800Z,12.73
2022-09-30T21:00:40.008Z,12.90
2022-09-30T21:03:50.316Z,13.57
2022-09-30T21:06:53.784Z,12.05
2022-09-30T21:09:57.517Z,13.98
2022-09-30T21:13:04.034Z,17.90
2022-09-30T21:16:08.603Z,15.00
2022-09-30T21:19:12.131Z,13.23
2022-09-30T21:22:17.307Z,7.78
2022-09-30T21:25:20.984Z,13.77
2022-09-30T21:28:25.344Z,8.95
2022-09-30T21:31:29.340Z,5.63
2022-09-30T21:34:34.114Z,7.23
2022-09-30T21:37:37.962Z,5.68
2022-09-30T21:40:41.455Z,3.45
2022-09-30T21:43:45.343Z,4.40
2022-09-30T21:46:50.451Z,5.37
2022-09-30T21:49:53.956Z,5.80
2022-09-30T21:52:59.438Z,6.00
2022-09-30T21:56:03.974Z,6.03
2022-09-30T21:59:07.534Z,6.45
2022-09-30T22:02:11.508Z,6.47
2022-09-30T22:05:20.624Z,7.27
2022-09-30T22:08:24.488Z,7.60
2022-09-30T22:11:30.199Z,7.38
2022-09-30T22:14:33.946Z,6.57
2022-09-30T22:17:37.420Z,7.73
2022-09-30T22:20:40.905Z,7.87
2022-09-30T22:23:48.520Z,7.20
2022-09-30T22:26:52.933Z,7.43
2022-09-30T22:29:57.732Z,6.57
2022-09-30T22:33:20.005Z,6.57
2022-09-30T22:36:42.189Z,6.10
2022-09-30T22:39:45.635Z,5.97
2022-09-30T22:42:49.044Z,6.15
2022-09-30T22:46:03.866Z,5.60
2022-09-30T22:49:07.553Z,5.53
2022-09-30T22:52:11.024Z,5.47
2022-09-30T22:55:15.264Z,5.63
2022-09-30T22:58:19.328Z,5.50
2022-09-30T23:01:23.003Z,5.10
2022-09-30T23:04:27.495Z,4.97
2022-09-30T23:07:31.096Z,4.87
2022-09-30T23:10:34.821Z,4.38
2022-09-30T23:13:40.101Z,4.65
2022-09-30T23:16:43.539Z,4.57
2022-09-30T23:19:47.514Z,4.00
2022-09-30T23:22:50.912Z,4.03
2022-09-30T23:26:08.291Z,3.17
2022-09-30T23:29:13.549Z,3.40
2022-09-30T23:32:17.149Z,3.25
2022-09-30T23:35:20.624Z,3.93
2022-09-30T23:38:27.636Z,3.60
2022-09-30T23:41:32.741Z,3.55
2022-09-30T23:44:36.394Z,4.25
2022-09-30T23:47:39.928Z,4.20
2022-09-30T23:50:44.149Z,4.23
2022-09-30T23:53:47.770Z,3.57
2022-09-30T23:56:51.264Z,4.13
2022-09-30T23:59:54.688Z,3.53
